sensor_id;sensor_type;location;lat;lon;timestamp;P1;durP1;ratioP1;P2;durP2;ratioP2
68479;SDS011;55469;48.934;12.050;2023-02-15T00:01:54;9.75;;;4.78;;
68479;SDS011;55469;48.934;12.050;2023-02-15T00:04:21;8.57;;;4.35;;
68479;SDS011;55469;48.934;12.050;2023-02-15T00:06:49;9.60;;;4.90;;
68479;SDS011;55469;48.934;12.050;2023-02-15T00:09:15;9.90;;;4.70;;
68479;SDS011;55469;48.934;12.050;2023-02-15T00:11:41;8.00;;;4.35;;
68479;SDS011;55469;48.934;12.050;2023-02-15T00:16:50;8.57;;;4.47;;
68479;SDS011;55469;48.934;12.050;2023-02-15T00:19:18;9.50;;;4.70;;
68479;SDS011;55469;48.934;12.050;2023-02-15T00:21:46;8.52;;;4.35;;
68479;SDS011;55469;48.934;12.050;2023-02-15T00:24:14;9.38;;;4.70;;
68479;SDS011;55469;48.934;12.050;2023-02-15T00:26:42;10.32;;;4.90;;
68479;SDS011;55469;48.934;12.050;2023-02-15T00:29:09;8.43;;;4.47;;
68479;SDS011;55469;48.934;12.050;2023-02-15T00:31:38;9.65;;;4.78;;
68479;SDS011;55469;48.934;12.050;2023-02-15T00:34:07;11.07;;;5.32;;
68479;SDS011;55469;48.934;12.050;2023-02-15T00:36:41;9.60;;;4.75;;
68479;SDS011;55469;48.934;12.050;2023-02-15T00:39:08;10.80;;;4.97;;
68479;SDS011;55469;48.934;12.050;2023-02-15T00:41:33;9.25;;;5.00;;
68479;SDS011;55469;48.934;12.050;2023-02-15T00:43:59;10.77;;;5.00;;
68479;SDS011;55469;48.934;12.050;2023-02-15T00:46:25;10.35;;;4.85;;
68479;SDS011;55469;48.934;12.050;2023-02-15T00:48:51;10.30;;;5.15;;
68479;SDS011;55469;48.934;12.050;2023-02-15T00:51:16;9.70;;;4.65;;
68479;SDS011;55469;48.934;12.050;2023-02-15T00:53:42;10.40;;;5.00;;
68479;SDS011;55469;48.934;12.050;2023-02-15T00:56:11;10.95;;;5.20;;
68479;SDS011;55469;48.934;12.050;2023-02-15T00:58:37;10.10;;;5.13;;
68479;SDS011;55469;48.934;12.050;2023-02-15T01:01:04;9.88;;;4.78;;
68479;SDS011;55469;48.934;12.050;2023-02-15T01:03:33;10.13;;;5.03;;
68479;SDS011;55469;48.934;12.050;2023-02-15T01:05:59;10.32;;;5.00;;
68479;SDS011;55469;48.934;12.050;2023-02-15T01:08:25;8.70;;;4.63;;
68479;SDS011;55469;48.934;12.050;2023-02-15T01:10:52;9.82;;;4.75;;
68479;SDS011;55469;48.934;12.050;2023-02-15T01:13:18;9.60;;;4.55;;
68479;SDS011;55469;48.934;12.050;2023-02-15T01:15:44;11.85;;;5.13;;
68479;SDS011;55469;48.934;12.050;2023-02-15T01:18:10;9.75;;;5.10;;
68479;SDS011;55469;48.934;12.050;2023-02-15T01:20:37;10.73;;;5.05;;
68479;SDS011;55469;48.934;12.050;2023-02-15T01:23:06;10.45;;;4.80;;
68479;SDS011;55469;48.934;12.050;2023-02-15T01:25:34;9.75;;;4.80;;
68479;SDS011;55469;48.934;12.050;2023-02-15T01:28:00;9.80;;;4.80;;
68479;SDS011;55469;48.934;12.050;2023-02-15T01:30:26;10.10;;;4.88;;
68479;SDS011;55469;48.934;12.050;2023-02-15T01:32:52;9.77;;;4.60;;
68479;SDS011;55469;48.934;12.050;2023-02-15T01:35:18;11.45;;;5.10;;
68479;SDS011;55469;48.934;12.050;2023-02-15T01:37:44;9.85;;;4.95;;
68479;SDS011;55469;48.934;12.050;2023-02-15T01:40:13;10.23;;;5.13;;
68479;SDS011;55469;48.934;12.050;2023-02-15T01:42:41;9.32;;;4.50;;
68479;SDS011;55469;48.934;12.050;2023-02-15T01:47:52;9.60;;;4.90;;
68479;SDS011;55469;48.934;12.050;2023-02-15T01:50:34;10.18;;;4.63;;
68479;SDS011;55469;48.934;12.050;2023-02-15T01:56:07;9.20;;;4.70;;
68479;SDS011;55469;48.934;12.050;2023-02-15T01:58:38;10.52;;;4.70;;
68479;SDS011;55469;48.934;12.050;2023-02-15T02:01:05;8.40;;;4.53;;
68479;SDS011;55469;48.934;12.050;2023-02-15T02:03:44;10.85;;;5.07;;
68479;SDS011;55469;48.934;12.050;2023-02-15T02:06:34;8.88;;;4.22;;
68479;SDS011;55469;48.934;12.050;2023-02-15T02:09:02;10.57;;;4.85;;
68479;SDS011;55469;48.934;12.050;2023-02-15T02:11:28;10.82;;;4.80;;
68479;SDS011;55469;48.934;12.050;2023-02-15T02:13:54;9.55;;;4.47;;
68479;SDS011;55469;48.934;12.050;2023-02-15T02:16:25;9.90;;;4.68;;
68479;SDS011;55469;48.934;12.050;2023-02-15T02:19:27;9.40;;;4.10;;
68479;SDS011;55469;48.934;12.050;2023-02-15T02:25:23;9.85;;;4.72;;
68479;SDS011;55469;48.934;12.050;2023-02-15T02:34:27;10.10;;;4.28;;
68479;SDS011;55469;48.934;12.050;2023-02-15T02:39:58;9.65;;;4.57;;
68479;SDS011;55469;48.934;12.050;2023-02-15T02:42:41;10.23;;;4.80;;
68479;SDS011;55469;48.934;12.050;2023-02-15T02:48:25;10.43;;;4.82;;
68479;SDS011;55469;48.934;12.050;2023-02-15T02:50:49;9.30;;;4.38;;
68479;SDS011;55469;48.934;12.050;2023-02-15T02:53:15;10.80;;;4.53;;
68479;SDS011;55469;48.934;12.050;2023-02-15T02:55:45;10.07;;;4.78;;
68479;SDS011;55469;48.934;12.050;2023-02-15T02:58:37;9.48;;;4.40;;
68479;SDS011;55469;48.934;12.050;2023-02-15T03:01:16;11.20;;;5.07;;
68479;SDS011;55469;48.934;12.050;2023-02-15T03:03:51;9.63;;;4.28;;
68479;SDS011;55469;48.934;12.050;2023-02-15T03:09:23;9.13;;;4.35;;
68479;SDS011;55469;48.934;12.050;2023-02-15T03:12:06;10.25;;;4.95;;
68479;SDS011;55469;48.934;12.050;2023-02-15T03:14:39;10.07;;;4.22;;
68479;SDS011;55469;48.934;12.050;2023-02-15T03:17:06;9.40;;;4.40;;
68479;SDS011;55469;48.934;12.050;2023-02-15T03:19:34;9.93;;;4.47;;
68479;SDS011;55469;48.934;12.050;2023-02-15T03:22:13;9.93;;;4.82;;
68479;SDS011;55469;48.934;12.050;2023-02-15T03:24:50;10.85;;;4.53;;
68479;SDS011;55469;48.934;12.050;2023-02-15T03:27:24;9.30;;;4.10;;
68479;SDS011;55469;48.934;12.050;2023-02-15T03:29:57;8.68;;;4.35;;
68479;SDS011;55469;48.934;12.050;2023-02-15T03:32:24;9.93;;;4.72;;
68479;SDS011;55469;48.934;12.050;2023-02-15T03:34:52;8.77;;;3.95;;
68479;SDS011;55469;48.934;12.050;2023-02-15T03:37:26;9.43;;;4.20;;
68479;SDS011;55469;48.934;12.050;2023-02-15T03:43:09;10.30;;;4.32;;
68479;SDS011;55469;48.934;12.050;2023-02-15T03:45:51;7.95;;;3.85;;
68479;SDS011;55469;48.934;12.050;2023-02-15T03:48:26;10.25;;;4.53;;
68479;SDS011;55469;48.934;12.050;2023-02-15T03:51:02;9.23;;;4.35;;
68479;SDS011;55469;48.934;12.050;2023-02-15T03:53:52;9.18;;;4.25;;
68479;SDS011;55469;48.934;12.050;2023-02-15T03:56:19;8.10;;;4.00;;
68479;SDS011;55469;48.934;12.050;2023-02-15T03:58:45;7.82;;;4.22;;
68479;SDS011;55469;48.934;12.050;2023-02-15T04:04:38;9.02;;;4.28;;
68479;SDS011;55469;48.934;12.050;2023-02-15T04:07:10;9.02;;;4.10;;
68479;SDS011;55469;48.934;12.050;2023-02-15T04:09:36;10.18;;;4.40;;
68479;SDS011;55469;48.934;12.050;2023-02-15T04:12:21;9.95;;;4.72;;
68479;SDS011;55469;48.934;12.050;2023-02-15T04:14:47;10.90;;;4.13;;
68479;SDS011;55469;48.934;12.050;2023-02-15T04:17:31;11.65;;;5.10;;
68479;SDS011;55469;48.934;12.050;2023-02-15T04:19:57;9.05;;;4.05;;
68479;SDS011;55469;48.934;12.050;2023-02-15T04:22:41;8.10;;;4.15;;
68479;SDS011;55469;48.934;12.050;2023-02-15T04:25:26;9.43;;;4.20;;
68479;SDS011;55469;48.934;12.050;2023-02-15T04:27:54;9.43;;;4.05;;
68479;SDS011;55469;48.934;12.050;2023-02-15T04:30:22;10.65;;;4.60;;
68479;SDS011;55469;48.934;12.050;2023-02-15T04:32:50;9.48;;;4.43;;
68479;SDS011;55469;48.934;12.050;2023-02-15T04:35:16;10.77;;;5.18;;
68479;SDS011;55469;48.934;12.050;2023-02-15T04:37:43;12.10;;;4.88;;
68479;SDS011;55469;48.934;12.050;2023-02-15T04:40:10;10.98;;;4.40;;
68479;SDS011;55469;48.934;12.050;2023-02-15T04:42:39;10.75;;;4.55;;
68479;SDS011;55469;48.934;12.050;2023-02-15T04:45:04;10.68;;;4.07;;
68479;SDS011;55469;48.934;12.050;2023-02-15T04:47:31;10.07;;;4.25;;
68479;SDS011;55469;48.934;12.050;2023-02-15T04:49:57;9.55;;;4.00;;
68479;SDS011;55469;48.934;12.050;2023-02-15T04:52:22;8.27;;;4.18;;
68479;SDS011;55469;48.934;12.050;2023-02-15T04:54:48;8.35;;;4.20;;
68479;SDS011;55469;48.934;12.050;2023-02-15T04:57:14;9.55;;;4.10;;
68479;SDS011;55469;48.934;12.050;2023-02-15T04:59:40;8.80;;;4.22;;
68479;SDS011;55469;48.934;12.050;2023-02-15T05:02:06;8.70;;;3.95;;
68479;SDS011;55469;48.934;12.050;2023-02-15T05:04:32;9.45;;;4.80;;
68479;SDS011;55469;48.934;12.050;2023-02-15T05:06:57;8.82;;;4.32;;
68479;SDS011;55469;48.934;12.050;2023-02-15T05:09:23;9.70;;;4.28;;
68479;SDS011;55469;48.934;12.050;2023-02-15T05:11:49;8.23;;;3.95;;
68479;SDS011;55469;48.934;12.050;2023-02-15T05:14:15;8.93;;;4.32;;
68479;SDS011;55469;48.934;12.050;2023-02-15T05:16:42;10.60;;;4.25;;
68479;SDS011;55469;48.934;12.050;2023-02-15T05:19:07;9.90;;;4.63;;
68479;SDS011;55469;48.934;12.050;2023-02-15T05:21:33;8.38;;;4.07;;
68479;SDS011;55469;48.934;12.050;2023-02-15T05:23:59;9.35;;;4.25;;
68479;SDS011;55469;48.934;12.050;2023-02-15T05:26:25;9.38;;;4.40;;
68479;SDS011;55469;48.934;12.050;2023-02-15T05:29:09;7.63;;;4.05;;
68479;SDS011;55469;48.934;12.050;2023-02-15T05:31:35;8.77;;;4.18;;
68479;SDS011;55469;48.934;12.050;2023-02-15T05:34:02;7.32;;;3.33;;
68479;SDS011;55469;48.934;12.050;2023-02-15T05:36:28;10.95;;;4.72;;
68479;SDS011;55469;48.934;12.050;2023-02-15T05:38:54;8.75;;;3.95;;
68479;SDS011;55469;48.934;12.050;2023-02-15T05:41:20;8.25;;;4.18;;
68479;SDS011;55469;48.934;12.050;2023-02-15T05:43:46;9.43;;;4.32;;
68479;SDS011;55469;48.934;12.050;2023-02-15T05:46:12;8.52;;;3.97;;
68479;SDS011;55469;48.934;12.050;2023-02-15T05:48:38;8.75;;;4.22;;
68479;SDS011;55469;48.934;12.050;2023-02-15T05:51:07;9.70;;;4.15;;
68479;SDS011;55469;48.934;12.050;2023-02-15T05:53:38;8.45;;;4.22;;
68479;SDS011;55469;48.934;12.050;2023-02-15T05:56:05;9.60;;;4.60;;
68479;SDS011;55469;48.934;12.050;2023-02-15T05:58:34;8.70;;;4.07;;
68479;SDS011;55469;48.934;12.050;2023-02-15T06:01:09;8.00;;;3.90;;
68479;SDS011;55469;48.934;12.050;2023-02-15T06:03:37;8.75;;;3.95;;
68479;SDS011;55469;48.934;12.050;2023-02-15T06:06:03;9.80;;;4.05;;
68479;SDS011;55469;48.934;12.050;2023-02-15T06:08:29;9.50;;;4.32;;
68479;SDS011;55469;48.934;12.050;2023-02-15T06:10:56;8.85;;;4.15;;
68479;SDS011;55469;48.934;12.050;2023-02-15T06:13:22;8.90;;;4.03;;
68479;SDS011;55469;48.934;12.050;2023-02-15T06:15:48;8.13;;;4.18;;
68479;SDS011;55469;48.934;12.050;2023-02-15T06:18:13;9.13;;;4.10;;
68479;SDS011;55469;48.934;12.050;2023-02-15T06:20:39;8.85;;;4.10;;
68479;SDS011;55469;48.934;12.050;2023-02-15T06:23:05;9.55;;;4.00;;
68479;SDS011;55469;48.934;12.050;2023-02-15T06:25:30;8.95;;;4.05;;
68479;SDS011;55469;48.934;12.050;2023-02-15T06:27:56;9.15;;;4.50;;
68479;SDS011;55469;48.934;12.050;2023-02-15T06:30:22;9.88;;;4.13;;
68479;SDS011;55469;48.934;12.050;2023-02-15T06:32:47;9.05;;;4.05;;
68479;SDS011;55469;48.934;12.050;2023-02-15T06:35:13;9.25;;;4.45;;
68479;SDS011;55469;48.934;12.050;2023-02-15T06:37:39;7.47;;;3.75;;
68479;SDS011;55469;48.934;12.050;2023-02-15T06:40:05;7.70;;;3.90;;
68479;SDS011;55469;48.934;12.050;2023-02-15T06:42:32;8.65;;;3.92;;
68479;SDS011;55469;48.934;12.050;2023-02-15T06:44:57;9.52;;;4.18;;
68479;SDS011;55469;48.934;12.050;2023-02-15T06:47:25;8.60;;;4.30;;
68479;SDS011;55469;48.934;12.050;2023-02-15T06:49:51;8.75;;;4.05;;
68479;SDS011;55469;48.934;12.050;2023-02-15T06:52:16;9.90;;;4.82;;
68479;SDS011;55469;48.934;12.050;2023-02-15T06:54:42;8.07;;;3.90;;
68479;SDS011;55469;48.934;12.050;2023-02-15T06:57:08;8.95;;;4.47;;
68479;SDS011;55469;48.934;12.050;2023-02-15T06:59:34;9.40;;;4.45;;
68479;SDS011;55469;48.934;12.050;2023-02-15T07:02:00;9.88;;;4.93;;
68479;SDS011;55469;48.934;12.050;2023-02-15T07:04:26;9.30;;;4.30;;
68479;SDS011;55469;48.934;12.050;2023-02-15T07:06:53;8.13;;;4.18;;
68479;SDS011;55469;48.934;12.050;2023-02-15T07:09:19;8.85;;;3.78;;
68479;SDS011;55469;48.934;12.050;2023-02-15T07:11:44;7.88;;;4.10;;
68479;SDS011;55469;48.934;12.050;2023-02-15T07:14:29;10.35;;;4.57;;
68479;SDS011;55469;48.934;12.050;2023-02-15T07:16:54;7.95;;;4.25;;
68479;SDS011;55469;48.934;12.050;2023-02-15T07:19:20;8.43;;;3.83;;
68479;SDS011;55469;48.934;12.050;2023-02-15T07:21:46;7.45;;;3.85;;
68479;SDS011;55469;48.934;12.050;2023-02-15T07:24:11;9.35;;;4.22;;
68479;SDS011;55469;48.934;12.050;2023-02-15T07:26:37;7.70;;;3.95;;
68479;SDS011;55469;48.934;12.050;2023-02-15T07:29:03;9.48;;;4.45;;
68479;SDS011;55469;48.934;12.050;2023-02-15T07:31:29;9.18;;;4.57;;
68479;SDS011;55469;48.934;12.050;2023-02-15T07:33:55;8.95;;;4.10;;
68479;SDS011;55469;48.934;12.050;2023-02-15T07:36:20;8.70;;;4.38;;
68479;SDS011;55469;48.934;12.050;2023-02-15T07:38:46;7.72;;;4.07;;
68479;SDS011;55469;48.934;12.050;2023-02-15T07:41:13;8.75;;;4.18;;
68479;SDS011;55469;48.934;12.050;2023-02-15T07:43:40;9.40;;;4.50;;
68479;SDS011;55469;48.934;12.050;2023-02-15T07:46:09;10.07;;;4.35;;
68479;SDS011;55469;48.934;12.050;2023-02-15T07:48:38;10.32;;;4.45;;
68479;SDS011;55469;48.934;12.050;2023-02-15T07:51:06;8.70;;;3.63;;
68479;SDS011;55469;48.934;12.050;2023-02-15T07:53:34;8.73;;;4.32;;
68479;SDS011;55469;48.934;12.050;2023-02-15T07:56:01;9.23;;;4.20;;
68479;SDS011;55469;48.934;12.050;2023-02-15T07:58:31;8.43;;;4.07;;
68479;SDS011;55469;48.934;12.050;2023-02-15T08:01:16;8.27;;;4.40;;
68479;SDS011;55469;48.934;12.050;2023-02-15T08:03:58;10.25;;;4.75;;
68479;SDS011;55469;48.934;12.050;2023-02-15T08:06:25;9.32;;;4.63;;
68479;SDS011;55469;48.934;12.050;2023-02-15T08:08:53;8.43;;;3.80;;
68479;SDS011;55469;48.934;12.050;2023-02-15T08:11:20;8.20;;;3.88;;
68479;SDS011;55469;48.934;12.050;2023-02-15T08:19:18;7.05;;;3.75;;
68479;SDS011;55469;48.934;12.050;2023-02-15T08:21:53;8.13;;;3.92;;
68479;SDS011;55469;48.934;12.050;2023-02-15T08:24:25;8.63;;;4.40;;
68479;SDS011;55469;48.934;12.050;2023-02-15T08:26:57;9.77;;;4.45;;
68479;SDS011;55469;48.934;12.050;2023-02-15T08:29:24;10.50;;;4.43;;
68479;SDS011;55469;48.934;12.050;2023-02-15T08:31:53;9.20;;;4.20;;
68479;SDS011;55469;48.934;12.050;2023-02-15T08:34:24;9.23;;;4.43;;
68479;SDS011;55469;48.934;12.050;2023-02-15T08:36:50;10.57;;;4.45;;
68479;SDS011;55469;48.934;12.050;2023-02-15T08:39:16;9.15;;;4.40;;
68479;SDS011;55469;48.934;12.050;2023-02-15T08:41:42;9.00;;;4.45;;
68479;SDS011;55469;48.934;12.050;2023-02-15T08:44:11;8.43;;;4.40;;
68479;SDS011;55469;48.934;12.050;2023-02-15T08:46:38;8.88;;;4.55;;
68479;SDS011;55469;48.934;12.050;2023-02-15T08:49:07;9.25;;;4.50;;
68479;SDS011;55469;48.934;12.050;2023-02-15T08:51:34;8.18;;;4.45;;
68479;SDS011;55469;48.934;12.050;2023-02-15T08:54:03;8.30;;;4.30;;
68479;SDS011;55469;48.934;12.050;2023-02-15T08:56:39;11.80;;;5.07;;
68479;SDS011;55469;48.934;12.050;2023-02-15T08:59:06;10.27;;;4.80;;
68479;SDS011;55469;48.934;12.050;2023-02-15T09:01:37;11.15;;;4.80;;
68479;SDS011;55469;48.934;12.050;2023-02-15T09:04:05;8.02;;;4.38;;
68479;SDS011;55469;48.934;12.050;2023-02-15T09:06:36;8.02;;;4.20;;
68479;SDS011;55469;48.934;12.050;2023-02-15T09:09:03;8.25;;;4.50;;
68479;SDS011;55469;48.934;12.050;2023-02-15T09:11:30;10.75;;;5.00;;
68479;SDS011;55469;48.934;12.050;2023-02-15T09:14:05;11.35;;;5.07;;
68479;SDS011;55469;48.934;12.050;2023-02-15T09:16:35;9.38;;;4.72;;
68479;SDS011;55469;48.934;12.050;2023-02-15T09:19:03;8.25;;;4.35;;
68479;SDS011;55469;48.934;12.050;2023-02-15T09:21:30;7.05;;;3.78;;
68479;SDS011;55469;48.934;12.050;2023-02-15T09:23:58;8.55;;;4.25;;
68479;SDS011;55469;48.934;12.050;2023-02-15T09:26:27;9.57;;;4.47;;
68479;SDS011;55469;48.934;12.050;2023-02-15T09:28:57;8.38;;;4.40;;
68479;SDS011;55469;48.934;12.050;2023-02-15T09:31:26;9.02;;;4.82;;
68479;SDS011;55469;48.934;12.050;2023-02-15T09:33:55;10.18;;;4.90;;
68479;SDS011;55469;48.934;12.050;2023-02-15T09:36:24;8.65;;;4.47;;
68479;SDS011;55469;48.934;12.050;2023-02-15T09:39:00;9.60;;;4.70;;
68479;SDS011;55469;48.934;12.050;2023-02-15T09:41:44;9.23;;;4.53;;
68479;SDS011;55469;48.934;12.050;2023-02-15T09:44:30;11.02;;;5.07;;
68479;SDS011;55469;48.934;12.050;2023-02-15T09:50:15;8.13;;;4.13;;
68479;SDS011;55469;48.934;12.050;2023-02-15T09:58:22;9.80;;;4.38;;
68479;SDS011;55469;48.934;12.050;2023-02-15T10:11:09;9.23;;;4.45;;
68479;SDS011;55469;48.934;12.050;2023-02-15T10:13:21;9.88;;;4.90;;
68479;SDS011;55469;48.934;12.050;2023-02-15T10:27:21;8.60;;;4.25;;
68479;SDS011;55469;48.934;12.050;2023-02-15T10:32:49;8.93;;;4.53;;
68479;SDS011;55469;48.934;12.050;2023-02-15T10:46:55;9.00;;;4.93;;
68479;SDS011;55469;48.934;12.050;2023-02-15T10:56:05;10.10;;;4.72;;
68479;SDS011;55469;48.934;12.050;2023-02-15T11:02:01;9.77;;;4.63;;
68479;SDS011;55469;48.934;12.050;2023-02-15T11:07:38;7.75;;;3.80;;
68479;SDS011;55469;48.934;12.050;2023-02-15T11:12:38;7.97;;;4.15;;
68479;SDS011;55469;48.934;12.050;2023-02-15T11:15:21;8.93;;;4.28;;
68479;SDS011;55469;48.934;12.050;2023-02-15T11:18:11;10.38;;;5.22;;
68479;SDS011;55469;48.934;12.050;2023-02-15T11:21:09;9.52;;;4.28;;
68479;SDS011;55469;48.934;12.050;2023-02-15T11:23:47;11.10;;;5.05;;
68479;SDS011;55469;48.934;12.050;2023-02-15T11:26:16;9.55;;;4.38;;
68479;SDS011;55469;48.934;12.050;2023-02-15T11:32:18;8.35;;;4.40;;
68479;SDS011;55469;48.934;12.050;2023-02-15T11:35:01;8.95;;;4.00;;
68479;SDS011;55469;48.934;12.050;2023-02-15T11:37:40;9.55;;;4.43;;
68479;SDS011;55469;48.934;12.050;2023-02-15T11:50:02;10.90;;;4.70;;
68479;SDS011;55469;48.934;12.050;2023-02-15T11:52:51;8.77;;;4.22;;
68479;SDS011;55469;48.934;12.050;2023-02-15T11:55:33;7.93;;;4.20;;
68479;SDS011;55469;48.934;12.050;2023-02-15T12:01:23;10.35;;;5.10;;
68479;SDS011;55469;48.934;12.050;2023-02-15T12:04:37;8.95;;;4.57;;
68479;SDS011;55469;48.934;12.050;2023-02-15T12:07:41;9.32;;;4.63;;
68479;SDS011;55469;48.934;12.050;2023-02-15T12:14:46;10.85;;;4.88;;
68479;SDS011;55469;48.934;12.050;2023-02-15T12:17:28;9.73;;;4.50;;
68479;SDS011;55469;48.934;12.050;2023-02-15T12:20:50;11.00;;;5.13;;
68479;SDS011;55469;48.934;12.050;2023-02-15T12:24:51;9.48;;;4.78;;
68479;SDS011;55469;48.934;12.050;2023-02-15T12:28:03;9.32;;;4.43;;
68479;SDS011;55469;48.934;12.050;2023-02-15T12:35:16;8.43;;;4.60;;
68479;SDS011;55469;48.934;12.050;2023-02-15T12:41:38;9.55;;;4.57;;
68479;SDS011;55469;48.934;12.050;2023-02-15T12:48:30;10.17;;;5.03;;
68479;SDS011;55469;48.934;12.050;2023-02-15T12:51:30;11.20;;;5.35;;
68479;SDS011;55469;48.934;12.050;2023-02-15T12:58:52;10.48;;;4.90;;
68479;SDS011;55469;48.934;12.050;2023-02-15T13:02:05;8.90;;;4.90;;
68479;SDS011;55469;48.934;12.050;2023-02-15T13:15:50;11.70;;;4.95;;
68479;SDS011;55469;48.934;12.050;2023-02-15T13:18:40;11.90;;;5.23;;
68479;SDS011;55469;48.934;12.050;2023-02-15T13:21:11;10.85;;;5.50;;
68479;SDS011;55469;48.934;12.050;2023-02-15T13:23:37;11.63;;;5.63;;
68479;SDS011;55469;48.934;12.050;2023-02-15T13:26:08;10.45;;;5.50;;
68479;SDS011;55469;48.934;12.050;2023-02-15T13:28:43;9.05;;;4.93;;
68479;SDS011;55469;48.934;12.050;2023-02-15T13:31:17;11.45;;;5.38;;
68479;SDS011;55469;48.934;12.050;2023-02-15T13:33:50;13.20;;;5.95;;
68479;SDS011;55469;48.934;12.050;2023-02-15T13:39:26;12.35;;;5.28;;
68479;SDS011;55469;48.934;12.050;2023-02-15T13:47:28;10.13;;;5.18;;
68479;SDS011;55469;48.934;12.050;2023-02-15T13:50:20;11.30;;;5.43;;
68479;SDS011;55469;48.934;12.050;2023-02-15T13:55:40;11.38;;;5.47;;
68479;SDS011;55469;48.934;12.050;2023-02-15T14:01:46;10.88;;;5.40;;
68479;SDS011;55469;48.934;12.050;2023-02-15T14:04:40;11.18;;;5.53;;
68479;SDS011;55469;48.934;12.050;2023-02-15T14:08:01;11.77;;;5.65;;
68479;SDS011;55469;48.934;12.050;2023-02-15T14:24:26;11.32;;;5.45;;
68479;SDS011;55469;48.934;12.050;2023-02-15T14:29:57;10.88;;;5.45;;
68479;SDS011;55469;48.934;12.050;2023-02-15T14:33:11;11.63;;;6.28;;
68479;SDS011;55469;48.934;12.050;2023-02-15T14:35:33;9.93;;;4.82;;
68479;SDS011;55469;48.934;12.050;2023-02-15T14:44:07;13.13;;;6.18;;
68479;SDS011;55469;48.934;12.050;2023-02-15T14:47:00;10.70;;;5.10;;
68479;SDS011;55469;48.934;12.050;2023-02-15T14:49:31;12.90;;;5.88;;
68479;SDS011;55469;48.934;12.050;2023-02-15T15:07:12;11.80;;;5.57;;
68479;SDS011;55469;48.934;12.050;2023-02-15T15:09:46;10.05;;;5.18;;
68479;SDS011;55469;48.934;12.050;2023-02-15T15:14:50;11.32;;;5.65;;
68479;SDS011;55469;48.934;12.050;2023-02-15T15:22:38;11.70;;;5.47;;
68479;SDS011;55469;48.934;12.050;2023-02-15T15:30:58;12.80;;;5.47;;
68479;SDS011;55469;48.934;12.050;2023-02-15T15:42:49;11.27;;;5.45;;
68479;SDS011;55469;48.934;12.050;2023-02-15T15:48:19;11.23;;;5.45;;
68479;SDS011;55469;48.934;12.050;2023-02-15T15:53:46;13.65;;;6.07;;
68479;SDS011;55469;48.934;12.050;2023-02-15T15:56:26;12.68;;;5.97;;
68479;SDS011;55469;48.934;12.050;2023-02-15T15:58:57;12.10;;;5.90;;
68479;SDS011;55469;48.934;12.050;2023-02-15T16:01:28;12.18;;;5.75;;
68479;SDS011;55469;48.934;12.050;2023-02-15T16:03:59;13.70;;;6.22;;
68479;SDS011;55469;48.934;12.050;2023-02-15T16:06:26;13.23;;;5.90;;
68479;SDS011;55469;48.934;12.050;2023-02-15T16:08:57;14.52;;;6.35;;
68479;SDS011;55469;48.934;12.050;2023-02-15T16:11:36;13.50;;;6.40;;
68479;SDS011;55469;48.934;12.050;2023-02-15T16:14:09;12.35;;;6.15;;
68479;SDS011;55469;48.934;12.050;2023-02-15T16:16:45;12.82;;;6.28;;
68479;SDS011;55469;48.934;12.050;2023-02-15T16:19:17;12.93;;;5.87;;
68479;SDS011;55469;48.934;12.050;2023-02-15T16:21:53;13.65;;;6.10;;
68479;SDS011;55469;48.934;12.050;2023-02-15T16:33:05;14.00;;;6.70;;
68479;SDS011;55469;48.934;12.050;2023-02-15T16:35:37;13.43;;;6.53;;
68479;SDS011;55469;48.934;12.050;2023-02-15T16:38:34;14.77;;;6.15;;
68479;SDS011;55469;48.934;12.050;2023-02-15T16:41:13;13.50;;;6.43;;
68479;SDS011;55469;48.934;12.050;2023-02-15T16:43:49;13.05;;;6.05;;
68479;SDS011;55469;48.934;12.050;2023-02-15T16:46:18;13.68;;;5.97;;
68479;SDS011;55469;48.934;12.050;2023-02-15T16:48:50;14.32;;;6.75;;
68479;SDS011;55469;48.934;12.050;2023-02-15T16:51:23;13.77;;;6.32;;
68479;SDS011;55469;48.934;12.050;2023-02-15T16:56:25;14.88;;;6.50;;
68479;SDS011;55469;48.934;12.050;2023-02-15T16:58:55;12.43;;;6.33;;
68479;SDS011;55469;48.934;12.050;2023-02-15T17:01:23;14.10;;;6.55;;
68479;SDS011;55469;48.934;12.050;2023-02-15T17:04:10;13.60;;;6.32;;
68479;SDS011;55469;48.934;12.050;2023-02-15T17:09:32;13.30;;;5.75;;
68479;SDS011;55469;48.934;12.050;2023-02-15T17:11:58;13.80;;;6.88;;
68479;SDS011;55469;48.934;12.050;2023-02-15T17:14:27;13.85;;;6.50;;
68479;SDS011;55469;48.934;12.050;2023-02-15T17:17:00;12.73;;;6.45;;
68479;SDS011;55469;48.934;12.050;2023-02-15T17:19:32;15.32;;;6.45;;
68479;SDS011;55469;48.934;12.050;2023-02-15T17:22:19;12.68;;;6.20;;
68479;SDS011;55469;48.934;12.050;2023-02-15T17:24:48;13.77;;;6.57;;
68479;SDS011;55469;48.934;12.050;2023-02-15T17:27:24;14.68;;;6.55;;
68479;SDS011;55469;48.934;12.050;2023-02-15T17:29:57;14.30;;;6.70;;
68479;SDS011;55469;48.934;12.050;2023-02-15T17:32:25;15.20;;;6.72;;
68479;SDS011;55469;48.934;12.050;2023-02-15T17:40:20;13.68;;;6.15;;
68479;SDS011;55469;48.934;12.050;2023-02-15T17:42:49;14.32;;;6.93;;
68479;SDS011;55469;48.934;12.050;2023-02-15T17:45:16;13.07;;;6.10;;
68479;SDS011;55469;48.934;12.050;2023-02-15T17:47:42;13.05;;;6.40;;
68479;SDS011;55469;48.934;12.050;2023-02-15T17:50:15;15.00;;;6.55;;
68479;SDS011;55469;48.934;12.050;2023-02-15T17:52:50;13.20;;;6.13;;
68479;SDS011;55469;48.934;12.050;2023-02-15T17:55:19;13.73;;;6.32;;
68479;SDS011;55469;48.934;12.050;2023-02-15T18:00:39;15.77;;;7.05;;
68479;SDS011;55469;48.934;12.050;2023-02-15T18:03:40;15.38;;;6.30;;
68479;SDS011;55469;48.934;12.050;2023-02-15T18:09:10;13.00;;;6.43;;
68479;SDS011;55469;48.934;12.050;2023-02-15T18:12:00;13.93;;;6.38;;
68479;SDS011;55469;48.934;12.050;2023-02-15T18:14:26;15.88;;;6.57;;
68479;SDS011;55469;48.934;12.050;2023-02-15T18:16:52;15.38;;;6.57;;
68479;SDS011;55469;48.934;12.050;2023-02-15T18:19:23;14.73;;;7.07;;
68479;SDS011;55469;48.934;12.050;2023-02-15T18:21:50;15.68;;;7.22;;
68479;SDS011;55469;48.934;12.050;2023-02-15T18:24:23;15.05;;;6.45;;
68479;SDS011;55469;48.934;12.050;2023-02-15T18:26:51;13.50;;;6.40;;
68479;SDS011;55469;48.934;12.050;2023-02-15T18:29:18;14.85;;;6.50;;
68479;SDS011;55469;48.934;12.050;2023-02-15T18:31:45;13.80;;;6.93;;
68479;SDS011;55469;48.934;12.050;2023-02-15T18:37:00;13.98;;;6.55;;
68479;SDS011;55469;48.934;12.050;2023-02-15T18:39:39;14.02;;;6.90;;
68479;SDS011;55469;48.934;12.050;2023-02-15T18:42:20;14.93;;;7.13;;
68479;SDS011;55469;48.934;12.050;2023-02-15T18:44:59;13.18;;;6.32;;
68479;SDS011;55469;48.934;12.050;2023-02-15T18:47:37;15.05;;;6.80;;
68479;SDS011;55469;48.934;12.050;2023-02-15T18:50:03;13.15;;;6.03;;
68479;SDS011;55469;48.934;12.050;2023-02-15T18:52:31;15.55;;;6.90;;
68479;SDS011;55469;48.934;12.050;2023-02-15T18:55:01;12.82;;;6.25;;
68479;SDS011;55469;48.934;12.050;2023-02-15T18:57:33;13.52;;;7.03;;
68479;SDS011;55469;48.934;12.050;2023-02-15T18:59:59;14.50;;;6.60;;
68479;SDS011;55469;48.934;12.050;2023-02-15T19:02:25;14.23;;;6.90;;
68479;SDS011;55469;48.934;12.050;2023-02-15T19:04:51;15.57;;;7.07;;
68479;SDS011;55469;48.934;12.050;2023-02-15T19:07:26;14.05;;;7.18;;
68479;SDS011;55469;48.934;12.050;2023-02-15T19:09:55;13.88;;;6.60;;
68479;SDS011;55469;48.934;12.050;2023-02-15T19:12:25;15.95;;;6.68;;
68479;SDS011;55469;48.934;12.050;2023-02-15T19:14:54;14.48;;;7.05;;
68479;SDS011;55469;48.934;12.050;2023-02-15T19:17:21;13.95;;;6.80;;